createdAt,value
2018-08-06T00:01:14.294Z,1.90
2018-08-06T00:03:41.754Z,1.93
2018-08-06T00:06:09.183Z,1.90
2018-08-06T00:08:36.643Z,1.70
2018-08-06T00:11:04.053Z,1.87
2018-08-06T00:13:31.473Z,2.10
2018-08-06T00:15:58.919Z,1.90
2018-08-06T00:18:26.345Z,1.93
2018-08-06T00:20:53.787Z,2.10
2018-08-06T00:23:21.207Z,1.90
2018-08-06T00:25:48.624Z,2.00
2018-08-06T00:28:16.059Z,2.00
2018-08-06T00:30:43.471Z,1.90
2018-08-06T00:33:10.889Z,1.80
2018-08-06T00:35:38.298Z,1.90
2018-08-06T00:38:05.792Z,2.10
2018-08-06T00:40:33.191Z,1.70
2018-08-06T00:43:00.609Z,1.90
2018-08-06T00:45:28.057Z,1.90
2018-08-06T00:47:55.507Z,1.90
2018-08-06T00:50:22.919Z,1.90
2018-08-06T00:52:50.352Z,1.80
2018-08-06T00:55:18.990Z,2.23
2018-08-06T00:57:46.419Z,2.00
2018-08-06T01:00:15.934Z,1.90
2018-08-06T01:02:43.419Z,1.80
2018-08-06T01:05:12.003Z,1.60
2018-08-06T01:07:40.112Z,1.60
2018-08-06T01:10:08.744Z,1.47
2018-08-06T01:12:36.651Z,1.80
2018-08-06T01:15:04.847Z,1.50
2018-08-06T01:17:32.263Z,1.30
2018-08-06T01:19:59.747Z,1.50
2018-08-06T01:22:27.235Z,1.30
2018-08-06T01:24:54.635Z,1.40
2018-08-06T01:27:22.066Z,1.33
2018-08-06T01:29:49.495Z,1.30
2018-08-06T01:32:16.908Z,1.20
2018-08-06T01:34:44.335Z,1.50
2018-08-06T01:37:11.795Z,1.60
2018-08-06T01:39:39.219Z,1.67
2018-08-06T01:42:06.623Z,1.60
2018-08-06T01:44:34.047Z,1.80
2018-08-06T01:47:01.488Z,1.70
2018-08-06T01:49:28.883Z,1.50
2018-08-06T01:51:56.319Z,1.60
2018-08-06T01:54:24.579Z,1.40
2018-08-06T01:56:52.011Z,1.40
2018-08-06T01:59:19.424Z,1.30
2018-08-06T02:01:46.833Z,1.40
2018-08-06T02:04:14.251Z,1.40
2018-08-06T02:06:41.704Z,1.70
2018-08-06T02:09:09.247Z,1.43
2018-08-06T02:11:36.712Z,1.60
2018-08-06T02:14:04.211Z,1.40
2018-08-06T02:16:31.635Z,1.50
2018-08-06T02:18:59.075Z,1.30
2018-08-06T02:21:26.535Z,1.47
2018-08-06T02:23:53.955Z,1.50
2018-08-06T02:26:21.359Z,1.60
2018-08-06T02:28:48.772Z,1.83
2018-08-06T02:31:16.183Z,1.80
2018-08-06T02:33:43.575Z,1.80
2018-08-06T02:36:11.076Z,2.00
2018-08-06T02:38:38.471Z,1.70
2018-08-06T02:41:05.940Z,1.60
2018-08-06T02:43:33.364Z,1.37
2018-08-06T02:46:00.820Z,1.40
2018-08-06T02:48:28.249Z,1.27
2018-08-06T02:50:55.683Z,1.40
2018-08-06T02:53:23.108Z,1.70
2018-08-06T02:55:50.535Z,1.33
2018-08-06T02:58:17.967Z,1.27
2018-08-06T03:00:45.388Z,1.40
2018-08-06T03:03:12.811Z,1.30
2018-08-06T03:05:40.239Z,1.23
2018-08-06T03:08:07.659Z,1.20
2018-08-06T03:10:35.086Z,1.40
2018-08-06T03:13:02.523Z,1.47
2018-08-06T03:15:30.012Z,1.40
2018-08-06T03:17:57.448Z,1.50
2018-08-06T03:20:24.908Z,1.20
2018-08-06T03:22:52.375Z,1.40
2018-08-06T03:25:19.804Z,1.50
2018-08-06T03:27:47.227Z,1.40
2018-08-06T03:30:15.791Z,1.40
2018-08-06T03:32:44.223Z,1.40
2018-08-06T03:35:12.192Z,1.30
2018-08-06T03:37:39.627Z,1.13
2018-08-06T03:40:07.694Z,1.40
2018-08-06T03:42:35.103Z,1.30
2018-08-06T03:45:02.571Z,1.40
2018-08-06T03:47:29.995Z,1.33
2018-08-06T03:49:57.480Z,1.70
2018-08-06T03:52:24.961Z,1.50
2018-08-06T03:54:52.415Z,1.50
2018-08-06T03:57:19.843Z,1.60
2018-08-06T03:59:47.302Z,1.30
2018-08-06T04:02:14.699Z,1.40
2018-08-06T04:04:42.151Z,1.33
2018-08-06T04:07:09.567Z,1.30
2018-08-06T04:09:36.999Z,1.50
2018-08-06T04:12:04.428Z,1.60
2018-08-06T04:14:31.900Z,1.30
2018-08-06T04:16:59.331Z,1.50
2018-08-06T04:19:26.749Z,1.33
2018-08-06T04:21:54.181Z,1.20
2018-08-06T04:24:21.587Z,1.20
2018-08-06T04:26:48.977Z,1.23
2018-08-06T04:29:16.451Z,1.30
2018-08-06T04:31:43.847Z,1.10
2018-08-06T04:34:11.257Z,1.40
2018-08-06T04:36:38.693Z,1.40
2018-08-06T04:39:06.437Z,1.07
2018-08-06T04:41:33.894Z,1.30
2018-08-06T04:44:01.317Z,1.27
2018-08-06T04:46:28.723Z,1.43
2018-08-06T04:48:56.153Z,1.33
2018-08-06T04:51:23.572Z,1.40
2018-08-06T04:53:51.616Z,1.00
2018-08-06T04:56:19.212Z,1.23
2018-08-06T04:58:46.660Z,1.33
2018-08-06T05:01:14.086Z,1.20
2018-08-06T05:03:41.491Z,1.13
2018-08-06T05:06:08.931Z,1.00
2018-08-06T05:08:36.332Z,1.10
2018-08-06T05:11:03.749Z,1.10
2018-08-06T05:13:31.229Z,1.00
2018-08-06T05:15:58.769Z,1.10
2018-08-06T05:18:26.163Z,1.03
2018-08-06T05:20:53.615Z,1.10
2018-08-06T05:23:21.335Z,1.10
2018-08-06T05:25:48.768Z,1.20
2018-08-06T05:28:16.220Z,1.00
2018-08-06T05:30:43.633Z,0.90
2018-08-06T05:33:11.107Z,1.10
2018-08-06T05:35:38.539Z,1.00
2018-08-06T05:38:05.987Z,1.30
2018-08-06T05:40:33.408Z,1.20
2018-08-06T05:43:00.840Z,1.00
2018-08-06T05:45:28.300Z,1.00
2018-08-06T05:47:55.729Z,1.10
2018-08-06T05:50:23.187Z,1.00
2018-08-06T17:07:20.336Z,0.77
2018-08-06T17:09:47.789Z,0.70
2018-08-06T17:12:15.227Z,0.90
2018-08-06T17:14:42.677Z,0.70
2018-08-06T17:17:10.110Z,0.97
2018-08-06T17:19:37.507Z,0.80
2018-08-06T17:22:04.944Z,1.00
2018-08-06T17:24:32.366Z,0.80
2018-08-06T17:26:59.804Z,0.80
2018-08-06T17:29:27.308Z,0.97
2018-08-06T17:31:54.735Z,0.90
2018-08-06T17:34:22.131Z,0.77
2018-08-06T17:36:49.567Z,0.90
2018-08-06T17:39:16.952Z,0.90
2018-08-06T17:41:44.351Z,0.93
2018-08-06T17:44:11.775Z,0.70
2018-08-06T17:46:39.228Z,0.90
2018-08-06T17:49:06.703Z,1.00
2018-08-06T17:51:34.164Z,1.20
2018-08-06T17:54:01.589Z,1.20
2018-08-06T17:56:29.175Z,0.90
2018-08-06T17:58:56.701Z,1.07
2018-08-06T18:01:24.156Z,0.90
2018-08-06T18:03:51.565Z,0.80
2018-08-06T18:06:18.998Z,0.80
2018-08-06T18:08:46.446Z,0.80
2018-08-06T18:11:13.867Z,1.00
2018-08-06T18:13:41.322Z,0.97
2018-08-06T18:16:08.728Z,0.90
2018-08-06T18:18:36.135Z,1.07
2018-08-06T18:21:03.598Z,1.00
2018-08-06T18:23:31.005Z,0.90
2018-08-06T18:25:58.399Z,0.90
2018-08-06T18:28:25.912Z,0.87
2018-08-06T18:30:53.316Z,0.90
2018-08-06T18:33:20.707Z,1.07
2018-08-06T18:35:48.128Z,1.23
2018-08-06T18:38:15.571Z,0.90
2018-08-06T18:40:42.991Z,0.90
2018-08-06T18:43:10.399Z,1.00
2018-08-06T18:45:37.847Z,0.93
2018-08-06T18:48:05.815Z,1.00
2018-08-06T18:50:33.251Z,0.97
2018-08-06T18:53:00.659Z,1.13
2018-08-06T18:55:28.089Z,1.03
2018-08-06T18:57:55.666Z,1.10
2018-08-06T19:00:24.188Z,1.00
2018-08-06T19:02:51.744Z,0.83
2018-08-06T19:05:19.254Z,1.00
2018-08-06T19:07:46.730Z,0.90
2018-08-06T19:10:14.135Z,0.90
2018-08-06T19:12:46.978Z,1.00
2018-08-06T19:15:14.714Z,0.97
2018-08-06T19:17:47.535Z,1.00
2018-08-06T19:20:15.199Z,1.00
2018-08-06T19:22:42.659Z,1.00
2018-08-06T19:25:15.387Z,0.90
2018-08-06T19:27:42.991Z,1.17
2018-08-06T19:30:10.804Z,1.07
2018-08-06T19:32:38.234Z,1.00
2018-08-06T19:35:05.676Z,0.90
2018-08-06T19:37:38.619Z,1.20
2018-08-06T19:40:06.824Z,1.00
2018-08-06T19:42:39.684Z,1.17
2018-08-06T19:45:07.183Z,1.20
2018-08-06T19:47:34.645Z,0.90
2018-08-06T19:50:07.510Z,0.93
2018-08-06T19:52:34.963Z,1.00
2018-08-06T19:55:07.783Z,0.93
2018-08-06T19:57:35.211Z,1.40
2018-08-06T20:00:02.659Z,1.10
2018-08-06T20:02:30.067Z,1.17
2018-08-06T20:04:57.511Z,1.20
2018-08-06T20:07:24.923Z,1.00
2018-08-06T20:09:52.334Z,1.17
2018-08-06T20:12:19.755Z,1.00
2018-08-06T20:14:47.180Z,1.00
2018-08-06T20:17:14.567Z,1.00
2018-08-06T20:19:42.015Z,1.27
2018-08-06T20:22:12.875Z,0.97
2018-08-06T20:24:40.265Z,0.93
2018-08-06T20:27:07.795Z,1.20
2018-08-06T20:29:35.236Z,1.10
2018-08-06T20:32:02.642Z,1.20
2018-08-06T20:34:30.099Z,1.10
2018-08-06T20:36:57.500Z,1.00
2018-08-06T20:39:24.889Z,1.10
2018-08-06T20:41:52.344Z,1.10
2018-08-06T20:44:19.740Z,1.10
2018-08-06T20:46:47.139Z,1.20
2018-08-06T20:49:14.583Z,1.00
2018-08-06T20:51:41.981Z,1.20
2018-08-06T20:54:09.384Z,1.17
2018-08-06T20:56:36.923Z,1.10
2018-08-06T20:59:04.351Z,1.07
2018-08-06T21:01:31.739Z,1.40
2018-08-06T21:03:59.299Z,1.13
2018-08-06T21:06:26.703Z,1.10
2018-08-06T21:08:54.113Z,1.37
2018-08-06T21:11:21.692Z,1.30
2018-08-06T21:13:49.128Z,1.30
2018-08-06T21:16:16.527Z,1.20
2018-08-06T21:18:43.947Z,1.03
2018-08-06T21:21:11.347Z,1.33
2018-08-06T21:23:38.727Z,1.40
2018-08-06T21:26:06.292Z,1.50
2018-08-06T21:28:33.687Z,1.23
2018-08-06T21:31:01.092Z,1.30
2018-08-06T21:33:28.537Z,1.10
2018-08-06T21:35:55.923Z,1.10
2018-08-06T21:38:23.347Z,1.27
2018-08-06T21:40:50.787Z,1.30
2018-08-06T21:43:18.186Z,1.20
2018-08-06T21:45:45.589Z,1.37
2018-08-06T21:48:13.054Z,1.40
2018-08-06T21:50:40.499Z,1.30
2018-08-06T21:53:08.204Z,1.30
2018-08-06T21:55:35.640Z,1.10
2018-08-06T21:58:03.032Z,1.30
2018-08-06T22:00:33.605Z,1.30
2018-08-06T22:03:01.563Z,1.40
2018-08-06T22:05:29.083Z,1.20
2018-08-06T22:07:56.666Z,1.40
2018-08-06T22:10:24.100Z,1.20
2018-08-06T22:12:51.563Z,1.30
2018-08-06T22:15:18.977Z,1.30
2018-08-06T22:17:46.489Z,1.37
2018-08-06T22:20:13.905Z,1.33
2018-08-06T22:22:41.328Z,1.30
2018-08-06T22:25:08.813Z,1.20
2018-08-06T22:27:36.247Z,1.20
2018-08-06T22:30:04.473Z,1.40
2018-08-06T22:32:31.944Z,1.43
2018-08-06T22:34:59.331Z,1.20
2018-08-06T22:37:26.769Z,1.27
2018-08-06T22:39:54.220Z,1.27
2018-08-06T22:42:21.652Z,1.50
2018-08-06T22:44:49.076Z,2.07
2018-08-06T22:47:16.725Z,1.60
2018-08-06T22:49:44.132Z,1.40
2018-08-06T22:52:11.552Z,1.43
2018-08-06T22:54:39.027Z,1.30
2018-08-06T22:57:06.431Z,1.50
2018-08-06T22:59:33.867Z,1.23
2018-08-06T23:02:01.273Z,1.37
2018-08-06T23:04:28.764Z,1.23
2018-08-06T23:06:56.180Z,1.30
2018-08-06T23:09:23.575Z,1.37
2018-08-06T23:11:51.035Z,1.30
2018-08-06T23:14:18.447Z,1.40
2018-08-06T23:16:45.848Z,1.27
2018-08-06T23:19:13.339Z,1.30
2018-08-06T23:21:40.731Z,1.40
2018-08-06T23:24:08.130Z,1.13
2018-08-06T23:26:35.585Z,1.27
2018-08-06T23:29:03.031Z,1.40
2018-08-06T23:31:30.445Z,1.80
2018-08-06T23:33:57.881Z,1.30
2018-08-06T23:36:25.337Z,1.30
2018-08-06T23:38:52.755Z,1.60
2018-08-06T23:41:20.268Z,1.30
2018-08-06T23:43:47.685Z,1.20
2018-08-06T23:46:15.085Z,1.50
2018-08-06T23:48:42.547Z,1.33
2018-08-06T23:51:10.507Z,1.20
2018-08-06T23:53:37.908Z,1.30
2018-08-06T23:56:05.381Z,1.40
2018-08-06T23:58:32.839Z,1.40
